Sagamihara, Japan
Current Conditions -  °F | °C
As of 1:30 PM on Wednesday 26 Nov 2014 (Local Time) from RJTY Reporting Station
Overcast Overcast  
Wind Chill: 50°   Ceiling: 3000
Heat Index: 50°   Visibility: 9mi
Dew Point: 50°   Wind: 12mph
Humidity: 100%   Direction: 350°N
Pressure: 29.96"   Gusts: NA
Location:  35.58°N, 139.38°E
Report Text: RJTY 260430Z AUTO 35010KT 9SM FEW011 OVC030 10/10 A2996 RMK AO2 RAB0407E0430 CIG 007 RWY18
Loading
Personal Weather Stations






























Interactive Weather Map New forecast layout! Learn more

10-Day Weather Forecast

Advertisements
Track Severe Weather on mobile